createdAt,value
2018-04-22T00:03:43.128Z,5.84
2018-04-22T00:09:43.997Z,6.11
2018-04-22T00:15:44.664Z,6.19
2018-04-22T00:19:45.444Z,5.71
2018-04-22T00:25:46.129Z,6.02
2018-04-22T00:29:46.852Z,5.73
2018-04-22T00:35:47.702Z,5.7
2018-04-22T00:41:48.421Z,5.76
2018-04-22T00:45:49.202Z,5.61
2018-04-22T00:51:50.015Z,5.78
2018-04-22T00:55:50.777Z,5.4
2018-04-22T00:57:51.614Z,5.77
2018-04-22T01:01:52.249Z,5.44
2018-04-22T01:07:53.013Z,5.86
2018-04-22T01:11:53.727Z,5.39
2018-04-22T01:17:54.454Z,6.11
2018-04-22T01:23:55.327Z,6
2018-04-22T01:27:56.124Z,5.92
2018-04-22T01:33:56.991Z,5.61
2018-04-22T01:37:57.755Z,5.31
2018-04-22T01:39:58.474Z,5.86
2018-04-22T01:43:59.198Z,5.77
2018-04-22T01:49:59.960Z,5.87
2018-04-22T01:54:00.714Z,5.77
2018-04-22T02:00:01.562Z,6.16
2018-04-22T02:04:02.265Z,5.74
2018-04-22T02:06:03.155Z,6.24
2018-04-22T02:10:04.029Z,5.7
2018-04-22T02:16:04.750Z,5.41
2018-04-22T02:20:05.561Z,5.91
2018-04-22T02:26:06.341Z,5.37
2018-04-22T02:32:07.237Z,5.59
2018-04-22T02:36:08.007Z,5.14
2018-04-22T02:42:08.868Z,6.53
2018-04-22T02:46:09.583Z,5.68
2018-04-22T02:48:10.259Z,5.71
2018-04-22T02:52:10.959Z,5.57
2018-04-22T02:58:11.726Z,6.03
2018-04-22T03:02:12.422Z,5.45
2018-04-22T03:08:13.189Z,5.73
2018-04-22T03:14:13.926Z,5.43
2018-04-22T03:18:14.743Z,5.49
2018-04-22T03:24:15.530Z,5.7
2018-04-22T03:28:16.311Z,5.22
2018-04-22T03:34:17.230Z,5.34
2018-04-22T03:40:17.954Z,5.67
2018-04-22T03:44:18.619Z,5.38
2018-04-22T03:50:19.407Z,6.39
2018-04-22T03:54:20.158Z,6.24
2018-04-22T03:56:20.951Z,6.41
2018-04-22T04:00:21.934Z,6.24
2018-04-22T04:06:22.646Z,6.26
2018-04-22T04:10:23.523Z,5.99
2018-04-22T04:16:24.240Z,5.79
2018-04-22T04:22:24.967Z,6.34
2018-04-22T04:26:25.725Z,6.37
2018-04-22T04:32:26.528Z,6.03
2018-04-22T04:36:27.230Z,6.51
2018-04-22T04:38:27.969Z,5.78
2018-04-22T04:42:28.691Z,5.95
2018-04-22T04:48:29.477Z,6.31
2018-04-22T04:52:30.276Z,5.98
2018-04-22T04:58:30.960Z,6.79
2018-04-22T05:02:31.656Z,6.03
2018-04-22T05:04:32.344Z,6.52
2018-04-22T05:08:33.088Z,6.43
2018-04-22T05:14:34.002Z,5.8
2018-04-22T05:18:34.776Z,5.65
2018-04-22T05:24:35.514Z,5.95
2018-04-22T05:30:36.293Z,6.43
2018-04-22T05:34:37.002Z,6.91
2018-04-22T05:40:37.798Z,6.55
2018-04-22T05:44:38.463Z,6.25
2018-04-22T05:46:39.268Z,6.59
2018-04-22T05:50:40.052Z,6.77
2018-04-22T05:56:40.846Z,6.41
2018-04-22T06:00:41.717Z,6.05
2018-04-22T06:06:42.505Z,7.79
2018-04-22T06:12:43.295Z,7.53
2018-04-22T06:16:44.086Z,7.02
2018-04-22T06:22:44.883Z,7.44
2018-04-22T06:26:45.720Z,7.79
2018-04-22T06:32:46.499Z,8.25
2018-04-22T06:38:47.259Z,8.12
2018-04-22T06:42:47.983Z,8.84
2018-04-22T06:48:48.831Z,8.31
2018-04-22T06:52:49.585Z,8.29
2018-04-22T06:54:50.433Z,8.76
2018-04-22T06:58:51.185Z,8.81
2018-04-22T07:04:51.889Z,9.06
2018-04-22T07:08:52.581Z,9.36
2018-04-22T07:14:53.500Z,8.9
2018-04-22T07:20:54.349Z,9.01
2018-04-22T07:24:55.136Z,9.03
2018-04-22T07:30:55.922Z,8.78
2018-04-22T07:34:56.577Z,9.01
2018-04-22T07:36:57.271Z,9.24
2018-04-22T07:40:57.977Z,9.37
2018-04-22T07:46:58.903Z,9.22
2018-04-22T07:50:59.993Z,9.52
2018-04-22T07:57:00.763Z,9.9
2018-04-22T08:01:01.517Z,8.9
2018-04-22T08:03:02.335Z,10.11
2018-04-22T08:07:03.104Z,10.58
2018-04-22T08:13:03.835Z,8.75
2018-04-22T08:17:04.642Z,9.35
2018-04-22T08:23:05.449Z,8.15
2018-04-22T08:29:06.527Z,8.86
2018-04-22T08:33:07.226Z,8.05
2018-04-22T08:39:08.145Z,7.81
2018-04-22T08:43:08.880Z,7.48
2018-04-22T08:45:10.257Z,7.88
2018-04-22T08:49:11.237Z,7.74
2018-04-22T08:55:12.005Z,7.46
2018-04-22T08:59:12.705Z,8.22
2018-04-22T09:05:13.521Z,7.42
2018-04-22T09:09:14.211Z,7.43
2018-04-22T09:11:14.893Z,7.61
2018-04-22T09:15:15.897Z,7.36
2018-04-22T09:21:16.699Z,6.76
2018-04-22T09:25:17.466Z,7.1
2018-04-22T09:31:18.336Z,6.47
2018-04-22T09:37:19.075Z,6.46
2018-04-22T09:41:19.850Z,5.76
2018-04-22T09:47:20.681Z,5.45
2018-04-22T09:51:21.540Z,4.98
2018-04-22T09:53:22.449Z,5.93
2018-04-22T09:57:23.161Z,6.4
2018-04-22T10:03:24.138Z,7.57
2018-04-22T10:07:25.004Z,7.17
2018-04-22T10:13:25.797Z,8.16
2018-04-22T10:19:26.569Z,8.46
2018-04-22T10:23:27.542Z,7.97
2018-04-22T10:29:28.246Z,8.77
2018-04-22T10:33:28.973Z,8.82
2018-04-22T10:35:29.693Z,9.32
2018-04-22T10:39:30.549Z,9.34
2018-04-22T10:45:31.262Z,8.72
2018-04-22T10:49:31.951Z,9.39
2018-04-22T10:55:32.769Z,8.57
2018-04-22T10:59:33.643Z,8.2
2018-04-22T11:01:34.318Z,7.91
2018-04-22T11:05:35.146Z,7.14
2018-04-22T11:11:35.996Z,7.56
2018-04-22T11:15:36.762Z,6.8
2018-04-22T11:21:37.561Z,7.56
2018-04-22T11:27:38.327Z,7.16
2018-04-22T11:31:39.178Z,8.77
2018-04-22T11:37:39.852Z,7.12
2018-04-22T11:41:40.664Z,6.48
2018-04-22T11:43:41.650Z,6.6
2018-04-22T11:47:42.551Z,6.25
2018-04-22T11:53:43.308Z,8.49
2018-04-22T11:57:44.093Z,7.67
2018-04-22T12:03:44.903Z,8.01
2018-04-22T12:07:50.415Z,7.07
2018-04-22T12:09:51.439Z,7.55
2018-04-22T12:13:52.349Z,6.9
2018-04-22T12:19:53.143Z,7.09
2018-04-22T12:23:53.898Z,6.61
2018-04-22T12:29:54.679Z,6.57
2018-04-22T12:35:55.451Z,6.68
2018-04-22T12:39:56.540Z,6.65
2018-04-22T12:45:57.292Z,6.9
2018-04-22T12:49:58.164Z,6
2018-04-22T12:51:58.841Z,6.49
2018-04-22T12:55:59.735Z,6.32
2018-04-22T13:02:00.568Z,6.56
2018-04-22T13:06:01.455Z,6.42
2018-04-22T13:12:02.132Z,7.49
2018-04-22T13:16:02.871Z,6.74
2018-04-22T13:18:03.945Z,6.67
2018-04-22T13:22:04.790Z,6.05
2018-04-22T13:28:05.632Z,6.52
2018-04-22T13:32:06.470Z,6.43
2018-04-22T13:38:07.271Z,6.23
2018-04-22T13:44:08.208Z,5.57
2018-04-22T13:48:08.984Z,5.32
2018-04-22T13:54:09.813Z,5.69
2018-04-22T13:58:10.694Z,5.29
2018-04-22T14:00:11.771Z,5.78
2018-04-22T14:04:12.647Z,5.55
2018-04-22T14:10:15.009Z,5.81
2018-04-22T14:14:14.206Z,5.38
2018-04-22T14:20:15.026Z,5.55
2018-04-22T14:26:15.822Z,5.52
2018-04-22T14:30:17.068Z,5.1
2018-04-22T14:36:17.897Z,5.87
2018-04-22T14:40:18.753Z,5.06
2018-04-22T14:46:19.626Z,4.54
2018-04-22T14:52:20.360Z,4.81
2018-04-22T14:56:21.162Z,5.06
2018-04-22T15:02:21.866Z,4.69
2018-04-22T15:06:22.885Z,4.75
2018-04-22T15:08:23.737Z,4.26
2018-04-22T15:12:24.401Z,4.35
2018-04-22T15:18:25.085Z,4.67
2018-04-22T15:22:25.804Z,4.61
2018-04-22T15:28:26.635Z,4.77
2018-04-22T15:34:27.353Z,4.86
2018-04-22T15:38:28.138Z,4.39
2018-04-22T15:44:28.982Z,4.96
2018-04-22T15:48:29.683Z,3.98
2018-04-22T15:50:30.396Z,4.7
2018-04-22T15:54:31.178Z,4.05
2018-04-22T16:00:31.958Z,4.66
2018-04-22T16:04:32.956Z,4.07
2018-04-22T16:10:34.513Z,3.75
2018-04-22T16:14:35.344Z,3.77
2018-04-22T16:16:36.127Z,4.06
2018-04-22T16:20:37.023Z,4.09
2018-04-22T16:26:37.716Z,4.17
2018-04-22T16:30:38.558Z,4
2018-04-22T16:36:39.385Z,4.01
2018-04-22T16:42:40.215Z,4.62
2018-04-22T16:46:40.953Z,4.08
2018-04-22T16:52:41.640Z,4.38
2018-04-22T16:56:42.469Z,4.06
2018-04-22T16:58:43.188Z,4.37
2018-04-22T17:02:43.941Z,4.52
2018-04-22T17:08:44.652Z,4.26
2018-04-22T17:12:45.457Z,4.01
2018-04-22T17:18:46.271Z,4.83
2018-04-22T17:24:47.087Z,4.17
2018-04-22T17:28:47.823Z,4.06
2018-04-22T17:34:48.559Z,4.55
2018-04-22T17:38:49.490Z,4.44
2018-04-22T17:44:50.190Z,4.74
2018-04-22T17:50:50.965Z,4.48
2018-04-22T17:54:51.724Z,4.3
2018-04-22T18:00:52.503Z,4.25
2018-04-22T18:04:53.266Z,4.75
2018-04-22T18:06:53.852Z,5.37
2018-04-22T18:10:54.657Z,5
2018-04-22T18:16:55.431Z,4.68
2018-04-22T18:20:56.548Z,5.06
2018-04-22T18:26:57.450Z,5.42
2018-04-22T18:32:58.360Z,5.86
2018-04-22T18:36:59.071Z,5.44
2018-04-22T18:42:59.814Z,6.02
2018-04-22T18:47:00.661Z,5.93
2018-04-22T18:49:01.333Z,6.17
2018-04-22T18:53:02.295Z,6.11
2018-04-22T18:59:03.052Z,6.36
2018-04-22T19:03:03.796Z,5.59
2018-04-22T19:09:04.671Z,5.8
2018-04-22T19:13:05.634Z,5.13
2018-04-22T19:19:11.936Z,6.35
2018-04-22T19:19:12.014Z,6.83
2018-04-22T19:25:12.910Z,8.94
2018-04-22T19:29:14.543Z,8.04
2018-04-22T19:35:15.619Z,7.64
2018-04-22T19:41:16.497Z,5.9
2018-04-22T19:45:17.819Z,6.4
2018-04-22T19:51:19.389Z,6.24
2018-04-22T19:55:20.379Z,5.85
2018-04-22T19:57:22.032Z,6.14
2018-04-22T20:01:22.798Z,5.98
2018-04-22T20:07:23.545Z,6.06
2018-04-22T20:11:24.397Z,6.32
2018-04-22T20:17:25.269Z,6.06
2018-04-22T20:21:26.014Z,5.62
2018-04-22T20:23:26.803Z,6.29
2018-04-22T20:27:27.556Z,6.25
2018-04-22T20:33:28.271Z,9.15
2018-04-22T20:37:29.078Z,8.37
2018-04-22T20:43:29.877Z,5.54
2018-04-22T20:49:30.769Z,5.99
2018-04-22T20:53:31.673Z,5.71
2018-04-22T20:59:32.526Z,6.19
2018-04-22T21:03:33.357Z,5.73
2018-04-22T21:05:33.996Z,5.72
2018-04-22T21:09:34.968Z,5.81
2018-04-22T21:15:35.766Z,14.03
2018-04-22T21:19:36.548Z,13.95
2018-04-22T21:25:37.298Z,6.1
2018-04-22T21:29:38.215Z,6.31
2018-04-22T21:31:38.958Z,7.85
2018-04-22T21:35:39.823Z,7.45
2018-04-22T21:41:40.482Z,6.59
2018-04-22T21:45:41.278Z,6.51
2018-04-22T21:57:44.537Z,8.19
2018-04-22T21:57:44.661Z,7.23
2018-04-22T22:01:45.504Z,7.54
2018-04-22T22:07:46.209Z,8.74
2018-04-22T22:11:47.094Z,8.26
2018-04-22T22:13:47.783Z,8.65
2018-04-22T22:17:48.629Z,8.57
2018-04-22T22:23:49.323Z,8.06
2018-04-22T22:27:50.118Z,8.06
2018-04-22T22:33:50.840Z,8.19
2018-04-22T22:37:51.640Z,7.67
2018-04-22T22:39:52.360Z,7.7
2018-04-22T22:43:53.107Z,7.83
2018-04-22T22:49:53.806Z,7.48
2018-04-22T22:53:54.821Z,7.63
2018-04-22T22:59:55.577Z,7.53
2018-04-22T23:05:56.347Z,7.22
2018-04-22T23:09:57.247Z,7.31
2018-04-22T23:15:57.991Z,7.37
2018-04-22T23:19:58.792Z,6.66
2018-04-22T23:21:59.524Z,7.13
2018-04-22T23:26:00.219Z,6.84
2018-04-22T23:32:00.999Z,7.56
2018-04-22T23:36:01.664Z,7.17
2018-04-22T23:42:02.523Z,6.82
2018-04-22T23:48:03.286Z,7.06
2018-04-22T23:52:04.090Z,6.99
2018-04-22T23:58:04.809Z,7.11
